sensor_id;sensor_type;location;lat;lon;timestamp;temperature;humidity
13707;DHT22;6925;47.816;13.072;2022-12-07T00:00:55;6.30;78.70
13707;DHT22;6925;47.816;13.072;2022-12-07T00:03:31;6.30;79.00
13707;DHT22;6925;47.816;13.072;2022-12-07T00:05:58;6.30;79.30
13707;DHT22;6925;47.816;13.072;2022-12-07T00:08:26;6.30;79.30
13707;DHT22;6925;47.816;13.072;2022-12-07T00:10:53;6.30;78.90
13707;DHT22;6925;47.816;13.072;2022-12-07T00:13:23;6.30;78.60
13707;DHT22;6925;47.816;13.072;2022-12-07T00:15:53;6.30;78.50
13707;DHT22;6925;47.816;13.072;2022-12-07T00:18:20;6.30;78.30
13707;DHT22;6925;47.816;13.072;2022-12-07T00:20:47;6.20;78.40
13707;DHT22;6925;47.816;13.072;2022-12-07T00:23:14;6.20;78.40
13707;DHT22;6925;47.816;13.072;2022-12-07T00:25:42;6.20;78.20
13707;DHT22;6925;47.816;13.072;2022-12-07T00:28:09;6.20;78.60
13707;DHT22;6925;47.816;13.072;2022-12-07T00:30:38;6.20;78.80
13707;DHT22;6925;47.816;13.072;2022-12-07T00:33:05;6.20;79.10
13707;DHT22;6925;47.816;13.072;2022-12-07T00:35:32;6.20;78.80
13707;DHT22;6925;47.816;13.072;2022-12-07T00:37:59;6.20;78.70
13707;DHT22;6925;47.816;13.072;2022-12-07T00:40:27;6.20;78.70
13707;DHT22;6925;47.816;13.072;2022-12-07T00:42:54;6.20;79.00
13707;DHT22;6925;47.816;13.072;2022-12-07T00:45:21;6.20;79.00
13707;DHT22;6925;47.816;13.072;2022-12-07T00:47:52;6.30;79.10
13707;DHT22;6925;47.816;13.072;2022-12-07T00:50:19;6.20;79.10
13707;DHT22;6925;47.816;13.072;2022-12-07T00:52:47;6.30;79.30
13707;DHT22;6925;47.816;13.072;2022-12-07T00:55:15;6.30;79.00
13707;DHT22;6925;47.816;13.072;2022-12-07T00:57:43;6.30;78.40
13707;DHT22;6925;47.816;13.072;2022-12-07T01:00:11;6.20;78.60
13707;DHT22;6925;47.816;13.072;2022-12-07T01:02:39;6.20;78.80
13707;DHT22;6925;47.816;13.072;2022-12-07T01:05:08;6.20;79.30
13707;DHT22;6925;47.816;13.072;2022-12-07T01:07:35;6.30;79.50
13707;DHT22;6925;47.816;13.072;2022-12-07T01:10:03;6.30;79.50
13707;DHT22;6925;47.816;13.072;2022-12-07T01:12:30;6.20;78.70
13707;DHT22;6925;47.816;13.072;2022-12-07T01:14:58;6.20;79.20
13707;DHT22;6925;47.816;13.072;2022-12-07T01:17:25;6.20;79.20
13707;DHT22;6925;47.816;13.072;2022-12-07T01:19:52;6.20;79.30
13707;DHT22;6925;47.816;13.072;2022-12-07T01:22:21;6.20;79.20
13707;DHT22;6925;47.816;13.072;2022-12-07T01:24:48;6.20;79.40
13707;DHT22;6925;47.816;13.072;2022-12-07T01:27:16;6.20;79.30
13707;DHT22;6925;47.816;13.072;2022-12-07T01:29:43;6.20;79.50
13707;DHT22;6925;47.816;13.072;2022-12-07T01:32:10;6.20;79.70
13707;DHT22;6925;47.816;13.072;2022-12-07T01:34:38;6.20;79.20
13707;DHT22;6925;47.816;13.072;2022-12-07T01:37:05;6.20;79.60
13707;DHT22;6925;47.816;13.072;2022-12-07T01:39:34;6.20;79.50
13707;DHT22;6925;47.816;13.072;2022-12-07T01:42:01;6.20;79.00
13707;DHT22;6925;47.816;13.072;2022-12-07T01:44:29;6.20;79.30
13707;DHT22;6925;47.816;13.072;2022-12-07T01:46:59;6.20;79.80
13707;DHT22;6925;47.816;13.072;2022-12-07T01:49:30;6.20;79.70
13707;DHT22;6925;47.816;13.072;2022-12-07T01:52:10;6.30;79.50
13707;DHT22;6925;47.816;13.072;2022-12-07T01:54:42;6.30;79.80
13707;DHT22;6925;47.816;13.072;2022-12-07T01:57:11;6.30;79.70
13707;DHT22;6925;47.816;13.072;2022-12-07T01:59:39;6.20;79.80
13707;DHT22;6925;47.816;13.072;2022-12-07T02:02:12;6.20;79.80
13707;DHT22;6925;47.816;13.072;2022-12-07T02:04:40;6.20;80.10
13707;DHT22;6925;47.816;13.072;2022-12-07T02:07:07;6.30;80.20
13707;DHT22;6925;47.816;13.072;2022-12-07T02:09:37;6.30;79.90
13707;DHT22;6925;47.816;13.072;2022-12-07T02:12:06;6.30;79.80
13707;DHT22;6925;47.816;13.072;2022-12-07T02:14:33;6.30;80.20
13707;DHT22;6925;47.816;13.072;2022-12-07T02:17:10;6.30;80.20
13707;DHT22;6925;47.816;13.072;2022-12-07T02:20:07;6.30;80.40
13707;DHT22;6925;47.816;13.072;2022-12-07T02:23:04;6.30;80.60
13707;DHT22;6925;47.816;13.072;2022-12-07T02:28:35;6.30;80.40
13707;DHT22;6925;47.816;13.072;2022-12-07T02:31:09;6.30;79.80
13707;DHT22;6925;47.816;13.072;2022-12-07T02:33:43;6.30;79.90
13707;DHT22;6925;47.816;13.072;2022-12-07T02:36:17;6.20;79.80
13707;DHT22;6925;47.816;13.072;2022-12-07T02:38:50;6.30;80.40
13707;DHT22;6925;47.816;13.072;2022-12-07T02:41:26;6.20;80.00
13707;DHT22;6925;47.816;13.072;2022-12-07T02:43:56;6.20;80.30
13707;DHT22;6925;47.816;13.072;2022-12-07T02:46:29;6.20;80.40
13707;DHT22;6925;47.816;13.072;2022-12-07T02:48:57;6.20;80.50
13707;DHT22;6925;47.816;13.072;2022-12-07T02:51:27;6.20;80.20
13707;DHT22;6925;47.816;13.072;2022-12-07T02:53:56;6.20;80.10
13707;DHT22;6925;47.816;13.072;2022-12-07T02:56:29;6.20;80.40
13707;DHT22;6925;47.816;13.072;2022-12-07T02:59:06;6.20;80.20
13707;DHT22;6925;47.816;13.072;2022-12-07T03:01:43;6.20;80.30
13707;DHT22;6925;47.816;13.072;2022-12-07T03:04:24;6.20;80.30
13707;DHT22;6925;47.816;13.072;2022-12-07T03:07:01;6.20;80.40
13707;DHT22;6925;47.816;13.072;2022-12-07T03:09:35;6.20;80.50
13707;DHT22;6925;47.816;13.072;2022-12-07T03:12:09;6.20;80.40
13707;DHT22;6925;47.816;13.072;2022-12-07T03:14:40;6.20;80.50
13707;DHT22;6925;47.816;13.072;2022-12-07T03:17:13;6.20;80.20
13707;DHT22;6925;47.816;13.072;2022-12-07T03:19:44;6.20;80.20
13707;DHT22;6925;47.816;13.072;2022-12-07T03:22:14;6.20;80.70
13707;DHT22;6925;47.816;13.072;2022-12-07T03:24:45;6.10;80.60
13707;DHT22;6925;47.816;13.072;2022-12-07T03:27:18;6.10;80.90
13707;DHT22;6925;47.816;13.072;2022-12-07T03:29:50;6.10;80.50
13707;DHT22;6925;47.816;13.072;2022-12-07T03:32:24;6.00;80.90
13707;DHT22;6925;47.816;13.072;2022-12-07T03:34:59;6.00;80.70
13707;DHT22;6925;47.816;13.072;2022-12-07T03:37:33;5.90;81.40
13707;DHT22;6925;47.816;13.072;2022-12-07T03:40:06;5.90;81.50
13707;DHT22;6925;47.816;13.072;2022-12-07T03:42:34;6.00;82.00
13707;DHT22;6925;47.816;13.072;2022-12-07T03:45:02;6.00;81.80
13707;DHT22;6925;47.816;13.072;2022-12-07T03:47:34;6.10;81.80
13707;DHT22;6925;47.816;13.072;2022-12-07T03:50:07;6.10;82.00
13707;DHT22;6925;47.816;13.072;2022-12-07T03:52:39;6.10;81.90
13707;DHT22;6925;47.816;13.072;2022-12-07T03:55:14;6.10;81.80
13707;DHT22;6925;47.816;13.072;2022-12-07T03:57:43;6.10;81.70
13707;DHT22;6925;47.816;13.072;2022-12-07T04:00:12;6.10;81.50
13707;DHT22;6925;47.816;13.072;2022-12-07T04:02:42;6.10;81.40
13707;DHT22;6925;47.816;13.072;2022-12-07T04:05:09;6.10;81.80
13707;DHT22;6925;47.816;13.072;2022-12-07T04:07:37;6.10;81.90
13707;DHT22;6925;47.816;13.072;2022-12-07T04:10:05;6.10;82.20
13707;DHT22;6925;47.816;13.072;2022-12-07T04:12:33;6.10;82.10
13707;DHT22;6925;47.816;13.072;2022-12-07T04:15:00;6.20;82.10
13707;DHT22;6925;47.816;13.072;2022-12-07T04:17:27;6.20;82.10
13707;DHT22;6925;47.816;13.072;2022-12-07T04:19:56;6.20;81.60
13707;DHT22;6925;47.816;13.072;2022-12-07T04:22:23;6.10;81.70
13707;DHT22;6925;47.816;13.072;2022-12-07T04:24:51;6.10;82.50
13707;DHT22;6925;47.816;13.072;2022-12-07T04:27:18;6.00;82.50
13707;DHT22;6925;47.816;13.072;2022-12-07T04:29:45;6.10;82.70
13707;DHT22;6925;47.816;13.072;2022-12-07T04:32:12;6.10;82.90
13707;DHT22;6925;47.816;13.072;2022-12-07T04:34:41;6.10;82.80
13707;DHT22;6925;47.816;13.072;2022-12-07T04:37:10;6.10;82.90
13707;DHT22;6925;47.816;13.072;2022-12-07T04:39:38;6.10;82.70
13707;DHT22;6925;47.816;13.072;2022-12-07T04:42:05;6.10;82.70
13707;DHT22;6925;47.816;13.072;2022-12-07T04:44:32;6.10;82.80
13707;DHT22;6925;47.816;13.072;2022-12-07T04:46:59;6.10;82.80
13707;DHT22;6925;47.816;13.072;2022-12-07T04:49:27;6.10;82.70
13707;DHT22;6925;47.816;13.072;2022-12-07T04:51:54;6.20;82.80
13707;DHT22;6925;47.816;13.072;2022-12-07T04:54:23;6.20;82.90
13707;DHT22;6925;47.816;13.072;2022-12-07T04:56:51;6.10;83.70
13707;DHT22;6925;47.816;13.072;2022-12-07T04:59:19;6.10;83.10
13707;DHT22;6925;47.816;13.072;2022-12-07T05:01:46;6.10;82.90
13707;DHT22;6925;47.816;13.072;2022-12-07T05:04:14;6.10;82.90
13707;DHT22;6925;47.816;13.072;2022-12-07T05:06:41;6.10;82.90
13707;DHT22;6925;47.816;13.072;2022-12-07T05:09:09;6.10;83.00
13707;DHT22;6925;47.816;13.072;2022-12-07T05:11:40;6.10;83.10
13707;DHT22;6925;47.816;13.072;2022-12-07T05:14:10;6.10;83.00
13707;DHT22;6925;47.816;13.072;2022-12-07T05:16:39;6.10;83.30
13707;DHT22;6925;47.816;13.072;2022-12-07T05:19:07;6.10;83.20
13707;DHT22;6925;47.816;13.072;2022-12-07T05:21:34;6.10;83.10
13707;DHT22;6925;47.816;13.072;2022-12-07T05:24:03;6.10;82.90
13707;DHT22;6925;47.816;13.072;2022-12-07T05:26:31;6.10;83.00
13707;DHT22;6925;47.816;13.072;2022-12-07T05:28:59;6.10;82.70
13707;DHT22;6925;47.816;13.072;2022-12-07T05:31:27;6.10;82.50
13707;DHT22;6925;47.816;13.072;2022-12-07T05:33:54;6.10;82.60
13707;DHT22;6925;47.816;13.072;2022-12-07T05:36:22;6.00;82.60
13707;DHT22;6925;47.816;13.072;2022-12-07T05:38:49;6.10;83.00
13707;DHT22;6925;47.816;13.072;2022-12-07T05:41:18;6.00;82.70
13707;DHT22;6925;47.816;13.072;2022-12-07T05:44:05;6.10;82.90
13707;DHT22;6925;47.816;13.072;2022-12-07T05:46:32;6.10;82.90
13707;DHT22;6925;47.816;13.072;2022-12-07T05:49:00;6.10;82.70
13707;DHT22;6925;47.816;13.072;2022-12-07T05:51:27;6.00;82.60
13707;DHT22;6925;47.816;13.072;2022-12-07T05:53:54;6.00;82.40
13707;DHT22;6925;47.816;13.072;2022-12-07T05:56:22;6.00;82.40
13707;DHT22;6925;47.816;13.072;2022-12-07T05:58:50;6.00;82.40
13707;DHT22;6925;47.816;13.072;2022-12-07T06:01:36;5.90;82.20
13707;DHT22;6925;47.816;13.072;2022-12-07T06:04:04;5.90;82.40
13707;DHT22;6925;47.816;13.072;2022-12-07T06:06:31;5.90;82.50
13707;DHT22;6925;47.816;13.072;2022-12-07T06:08:59;5.90;82.60
13707;DHT22;6925;47.816;13.072;2022-12-07T06:11:27;5.90;82.40
13707;DHT22;6925;47.816;13.072;2022-12-07T06:14:11;5.90;82.50
13707;DHT22;6925;47.816;13.072;2022-12-07T06:16:40;6.00;82.80
13707;DHT22;6925;47.816;13.072;2022-12-07T06:19:08;6.00;82.50
13707;DHT22;6925;47.816;13.072;2022-12-07T06:21:37;5.90;82.30
13707;DHT22;6925;47.816;13.072;2022-12-07T06:24:08;5.90;82.40
13707;DHT22;6925;47.816;13.072;2022-12-07T06:26:39;5.90;82.20
13707;DHT22;6925;47.816;13.072;2022-12-07T06:29:07;5.90;81.90
13707;DHT22;6925;47.816;13.072;2022-12-07T06:31:35;5.80;81.80
13707;DHT22;6925;47.816;13.072;2022-12-07T06:34:06;5.90;82.30
13707;DHT22;6925;47.816;13.072;2022-12-07T06:36:33;5.90;82.50
13707;DHT22;6925;47.816;13.072;2022-12-07T06:39:03;5.90;82.10
13707;DHT22;6925;47.816;13.072;2022-12-07T06:41:31;5.90;81.80
13707;DHT22;6925;47.816;13.072;2022-12-07T06:44:01;5.90;82.00
13707;DHT22;6925;47.816;13.072;2022-12-07T06:46:29;5.90;81.90
13707;DHT22;6925;47.816;13.072;2022-12-07T06:48:56;5.90;81.90
13707;DHT22;6925;47.816;13.072;2022-12-07T06:51:25;5.90;81.40
13707;DHT22;6925;47.816;13.072;2022-12-07T06:53:53;5.90;81.60
13707;DHT22;6925;47.816;13.072;2022-12-07T06:56:21;5.90;81.90
13707;DHT22;6925;47.816;13.072;2022-12-07T06:58:49;5.90;82.00
13707;DHT22;6925;47.816;13.072;2022-12-07T07:01:17;5.90;81.80
13707;DHT22;6925;47.816;13.072;2022-12-07T07:03:45;5.90;81.50
13707;DHT22;6925;47.816;13.072;2022-12-07T07:06:14;5.90;81.70
13707;DHT22;6925;47.816;13.072;2022-12-07T07:08:42;5.90;81.80
13707;DHT22;6925;47.816;13.072;2022-12-07T07:11:10;5.90;81.60
13707;DHT22;6925;47.816;13.072;2022-12-07T07:13:37;5.90;81.50
13707;DHT22;6925;47.816;13.072;2022-12-07T07:16:06;5.90;81.50
13707;DHT22;6925;47.816;13.072;2022-12-07T07:18:36;5.90;81.90
13707;DHT22;6925;47.816;13.072;2022-12-07T07:21:04;5.90;82.00
13707;DHT22;6925;47.816;13.072;2022-12-07T07:23:31;5.90;81.70
13707;DHT22;6925;47.816;13.072;2022-12-07T07:26:02;5.90;81.70
13707;DHT22;6925;47.816;13.072;2022-12-07T07:28:33;5.90;81.90
13707;DHT22;6925;47.816;13.072;2022-12-07T07:31:03;5.80;81.80
13707;DHT22;6925;47.816;13.072;2022-12-07T07:33:33;5.90;82.30
13707;DHT22;6925;47.816;13.072;2022-12-07T07:36:00;5.90;82.10
13707;DHT22;6925;47.816;13.072;2022-12-07T07:38:27;5.90;81.90
13707;DHT22;6925;47.816;13.072;2022-12-07T07:40:55;5.90;81.90
13707;DHT22;6925;47.816;13.072;2022-12-07T07:43:26;5.90;81.80
13707;DHT22;6925;47.816;13.072;2022-12-07T07:45:55;5.90;81.70
13707;DHT22;6925;47.816;13.072;2022-12-07T07:48:26;5.80;81.70
13707;DHT22;6925;47.816;13.072;2022-12-07T07:50:55;5.80;82.00
13707;DHT22;6925;47.816;13.072;2022-12-07T07:53:22;5.90;81.90
13707;DHT22;6925;47.816;13.072;2022-12-07T07:55:54;5.90;81.70
13707;DHT22;6925;47.816;13.072;2022-12-07T07:58:23;5.80;81.50
13707;DHT22;6925;47.816;13.072;2022-12-07T08:00:52;5.80;81.40
13707;DHT22;6925;47.816;13.072;2022-12-07T08:03:20;5.90;81.30
13707;DHT22;6925;47.816;13.072;2022-12-07T08:05:49;5.80;80.90
13707;DHT22;6925;47.816;13.072;2022-12-07T08:08:17;5.80;81.50
13707;DHT22;6925;47.816;13.072;2022-12-07T08:10:44;5.80;81.30
13707;DHT22;6925;47.816;13.072;2022-12-07T08:13:15;5.80;81.50
13707;DHT22;6925;47.816;13.072;2022-12-07T08:15:47;5.90;81.40
13707;DHT22;6925;47.816;13.072;2022-12-07T08:18:15;5.90;81.30
13707;DHT22;6925;47.816;13.072;2022-12-07T08:20:44;5.90;81.10
13707;DHT22;6925;47.816;13.072;2022-12-07T08:23:12;5.90;81.10
13707;DHT22;6925;47.816;13.072;2022-12-07T08:25:39;5.90;81.20
13707;DHT22;6925;47.816;13.072;2022-12-07T08:28:07;5.90;80.80
13707;DHT22;6925;47.816;13.072;2022-12-07T08:30:35;5.90;80.80
13707;DHT22;6925;47.816;13.072;2022-12-07T08:33:04;5.90;81.20
13707;DHT22;6925;47.816;13.072;2022-12-07T08:35:34;5.90;80.70
13707;DHT22;6925;47.816;13.072;2022-12-07T08:38:03;5.90;80.60
13707;DHT22;6925;47.816;13.072;2022-12-07T08:40:31;5.90;80.40
13707;DHT22;6925;47.816;13.072;2022-12-07T08:42:59;5.90;80.20
13707;DHT22;6925;47.816;13.072;2022-12-07T08:45:27;5.90;79.80
13707;DHT22;6925;47.816;13.072;2022-12-07T08:48:02;5.90;79.60
13707;DHT22;6925;47.816;13.072;2022-12-07T08:50:37;5.80;79.40
13707;DHT22;6925;47.816;13.072;2022-12-07T08:53:06;5.80;78.60
13707;DHT22;6925;47.816;13.072;2022-12-07T08:55:34;5.70;78.90
13707;DHT22;6925;47.816;13.072;2022-12-07T08:58:03;5.70;79.10
13707;DHT22;6925;47.816;13.072;2022-12-07T09:00:32;5.60;78.60
13707;DHT22;6925;47.816;13.072;2022-12-07T09:02:59;5.60;79.40
13707;DHT22;6925;47.816;13.072;2022-12-07T09:05:27;5.60;79.60
13707;DHT22;6925;47.816;13.072;2022-12-07T09:07:57;5.50;79.90
13707;DHT22;6925;47.816;13.072;2022-12-07T09:10:27;5.50;80.80
13707;DHT22;6925;47.816;13.072;2022-12-07T09:12:57;5.50;80.90
13707;DHT22;6925;47.816;13.072;2022-12-07T09:15:26;5.50;80.70
13707;DHT22;6925;47.816;13.072;2022-12-07T09:17:55;5.60;80.90
13707;DHT22;6925;47.816;13.072;2022-12-07T09:20:22;5.50;80.50
13707;DHT22;6925;47.816;13.072;2022-12-07T09:22:51;5.60;80.90
13707;DHT22;6925;47.816;13.072;2022-12-07T09:25:20;5.60;80.90
13707;DHT22;6925;47.816;13.072;2022-12-07T09:27:47;5.60;81.10
13707;DHT22;6925;47.816;13.072;2022-12-07T09:30:14;5.60;81.60
13707;DHT22;6925;47.816;13.072;2022-12-07T09:32:44;5.60;81.20
13707;DHT22;6925;47.816;13.072;2022-12-07T09:35:13;5.60;80.90
13707;DHT22;6925;47.816;13.072;2022-12-07T09:37:40;5.60;80.90
13707;DHT22;6925;47.816;13.072;2022-12-07T09:40:08;5.60;80.80
13707;DHT22;6925;47.816;13.072;2022-12-07T09:42:38;5.50;80.60
13707;DHT22;6925;47.816;13.072;2022-12-07T09:45:14;5.50;80.70
13707;DHT22;6925;47.816;13.072;2022-12-07T09:47:42;5.50;81.30
13707;DHT22;6925;47.816;13.072;2022-12-07T09:50:14;5.50;80.80
13707;DHT22;6925;47.816;13.072;2022-12-07T09:52:43;5.50;80.10
13707;DHT22;6925;47.816;13.072;2022-12-07T09:55:15;5.40;80.80
13707;DHT22;6925;47.816;13.072;2022-12-07T09:57:44;5.40;80.60
13707;DHT22;6925;47.816;13.072;2022-12-07T10:00:14;5.40;80.90
13707;DHT22;6925;47.816;13.072;2022-12-07T10:02:44;5.40;81.20
13707;DHT22;6925;47.816;13.072;2022-12-07T10:05:14;5.30;80.10
13707;DHT22;6925;47.816;13.072;2022-12-07T10:07:44;5.30;80.90
13707;DHT22;6925;47.816;13.072;2022-12-07T10:10:15;5.40;81.40
13707;DHT22;6925;47.816;13.072;2022-12-07T10:12:58;5.40;79.40
13707;DHT22;6925;47.816;13.072;2022-12-07T10:15:41;5.40;78.90
13707;DHT22;6925;47.816;13.072;2022-12-07T10:18:18;5.40;78.20
13707;DHT22;6925;47.816;13.072;2022-12-07T10:20:48;5.40;77.80
13707;DHT22;6925;47.816;13.072;2022-12-07T10:23:16;5.40;78.60
13707;DHT22;6925;47.816;13.072;2022-12-07T10:25:45;5.40;79.20
13707;DHT22;6925;47.816;13.072;2022-12-07T10:28:17;5.50;78.80
13707;DHT22;6925;47.816;13.072;2022-12-07T10:30:50;5.50;79.20
13707;DHT22;6925;47.816;13.072;2022-12-07T10:33:29;5.50;79.30
13707;DHT22;6925;47.816;13.072;2022-12-07T10:35:57;5.50;79.70
13707;DHT22;6925;47.816;13.072;2022-12-07T10:38:25;5.60;79.70
13707;DHT22;6925;47.816;13.072;2022-12-07T10:41:05;5.60;80.50
13707;DHT22;6925;47.816;13.072;2022-12-07T10:43:35;5.60;79.80
13707;DHT22;6925;47.816;13.072;2022-12-07T10:46:29;5.70;80.20
13707;DHT22;6925;47.816;13.072;2022-12-07T10:49:06;5.70;80.40
13707;DHT22;6925;47.816;13.072;2022-12-07T10:51:42;5.80;80.00
13707;DHT22;6925;47.816;13.072;2022-12-07T10:54:11;5.80;79.80
13707;DHT22;6925;47.816;13.072;2022-12-07T10:56:55;5.80;79.30
13707;DHT22;6925;47.816;13.072;2022-12-07T10:59:45;5.80;79.80
13707;DHT22;6925;47.816;13.072;2022-12-07T11:02:29;5.80;79.70
13707;DHT22;6925;47.816;13.072;2022-12-07T11:05:11;5.80;79.80
13707;DHT22;6925;47.816;13.072;2022-12-07T11:07:47;5.80;78.60
13707;DHT22;6925;47.816;13.072;2022-12-07T11:10:24;5.80;78.90
13707;DHT22;6925;47.816;13.072;2022-12-07T11:13:15;5.80;79.10
13707;DHT22;6925;47.816;13.072;2022-12-07T11:15:55;5.80;79.10
13707;DHT22;6925;47.816;13.072;2022-12-07T11:18:29;5.80;78.60
13707;DHT22;6925;47.816;13.072;2022-12-07T11:21:06;5.90;78.10
13707;DHT22;6925;47.816;13.072;2022-12-07T11:23:48;5.90;78.20
13707;DHT22;6925;47.816;13.072;2022-12-07T11:26:24;5.90;77.80
13707;DHT22;6925;47.816;13.072;2022-12-07T11:29:08;5.80;76.90
13707;DHT22;6925;47.816;13.072;2022-12-07T11:31:53;5.80;77.10
13707;DHT22;6925;47.816;13.072;2022-12-07T11:34:29;5.80;76.20
13707;DHT22;6925;47.816;13.072;2022-12-07T11:37:02;5.70;76.70
13707;DHT22;6925;47.816;13.072;2022-12-07T11:39:35;5.80;76.80
13707;DHT22;6925;47.816;13.072;2022-12-07T11:42:08;5.70;76.70
13707;DHT22;6925;47.816;13.072;2022-12-07T11:44:46;5.60;75.60
13707;DHT22;6925;47.816;13.072;2022-12-07T11:47:20;5.60;76.60
13707;DHT22;6925;47.816;13.072;2022-12-07T11:49:54;5.60;76.70
13707;DHT22;6925;47.816;13.072;2022-12-07T11:52:30;5.50;76.10
13707;DHT22;6925;47.816;13.072;2022-12-07T11:55:00;5.40;76.90
13707;DHT22;6925;47.816;13.072;2022-12-07T11:57:34;5.50;77.00
13707;DHT22;6925;47.816;13.072;2022-12-07T12:00:12;5.50;76.80
13707;DHT22;6925;47.816;13.072;2022-12-07T12:02:48;5.60;77.10
13707;DHT22;6925;47.816;13.072;2022-12-07T12:05:19;5.60;77.30
13707;DHT22;6925;47.816;13.072;2022-12-07T12:07:52;5.70;76.90
13707;DHT22;6925;47.816;13.072;2022-12-07T12:10:30;5.60;76.90
13707;DHT22;6925;47.816;13.072;2022-12-07T12:13:11;5.60;77.70
13707;DHT22;6925;47.816;13.072;2022-12-07T12:15:49;5.70;78.20
13707;DHT22;6925;47.816;13.072;2022-12-07T12:18:41;5.80;78.40
13707;DHT22;6925;47.816;13.072;2022-12-07T12:21:30;5.90;78.60
13707;DHT22;6925;47.816;13.072;2022-12-07T12:24:00;5.90;78.60
13707;DHT22;6925;47.816;13.072;2022-12-07T12:26:31;5.80;78.50
13707;DHT22;6925;47.816;13.072;2022-12-07T12:29:02;5.80;79.20
13707;DHT22;6925;47.816;13.072;2022-12-07T12:31:37;5.80;79.40
13707;DHT22;6925;47.816;13.072;2022-12-07T12:34:31;5.80;79.00
13707;DHT22;6925;47.816;13.072;2022-12-07T12:37:00;5.90;79.50
13707;DHT22;6925;47.816;13.072;2022-12-07T12:39:27;6.00;79.70
13707;DHT22;6925;47.816;13.072;2022-12-07T12:41:59;6.00;79.00
13707;DHT22;6925;47.816;13.072;2022-12-07T12:45:04;6.10;78.90
13707;DHT22;6925;47.816;13.072;2022-12-07T12:47:40;6.10;78.90
13707;DHT22;6925;47.816;13.072;2022-12-07T12:50:19;6.20;78.60
13707;DHT22;6925;47.816;13.072;2022-12-07T12:53:21;6.20;79.00
13707;DHT22;6925;47.816;13.072;2022-12-07T12:56:15;6.10;78.00
13707;DHT22;6925;47.816;13.072;2022-12-07T12:59:23;6.10;78.50
13707;DHT22;6925;47.816;13.072;2022-12-07T13:01:56;6.10;78.20
13707;DHT22;6925;47.816;13.072;2022-12-07T13:04:49;6.10;78.50
13707;DHT22;6925;47.816;13.072;2022-12-07T13:10:39;6.00;78.20
13707;DHT22;6925;47.816;13.072;2022-12-07T13:13:34;6.00;78.90
13707;DHT22;6925;47.816;13.072;2022-12-07T13:16:45;6.10;79.10
13707;DHT22;6925;47.816;13.072;2022-12-07T13:22:53;6.00;78.80
13707;DHT22;6925;47.816;13.072;2022-12-07T13:25:36;5.90;79.10
13707;DHT22;6925;47.816;13.072;2022-12-07T13:28:13;6.00;79.20
13707;DHT22;6925;47.816;13.072;2022-12-07T13:33:48;5.90;79.30
13707;DHT22;6925;47.816;13.072;2022-12-07T13:36:19;5.90;79.50
13707;DHT22;6925;47.816;13.072;2022-12-07T13:38:55;5.90;79.70
13707;DHT22;6925;47.816;13.072;2022-12-07T13:41:26;6.00;79.80
13707;DHT22;6925;47.816;13.072;2022-12-07T13:44:00;6.10;79.50
13707;DHT22;6925;47.816;13.072;2022-12-07T13:46:40;6.10;79.40
13707;DHT22;6925;47.816;13.072;2022-12-07T13:49:19;6.20;79.20
13707;DHT22;6925;47.816;13.072;2022-12-07T13:51:47;6.20;79.40
13707;DHT22;6925;47.816;13.072;2022-12-07T13:54:14;6.20;78.80
13707;DHT22;6925;47.816;13.072;2022-12-07T13:56:44;6.20;79.00
13707;DHT22;6925;47.816;13.072;2022-12-07T13:59:17;6.20;78.80
13707;DHT22;6925;47.816;13.072;2022-12-07T14:01:46;6.30;78.70
13707;DHT22;6925;47.816;13.072;2022-12-07T14:04:31;6.30;78.50
13707;DHT22;6925;47.816;13.072;2022-12-07T14:07:01;6.20;78.40
13707;DHT22;6925;47.816;13.072;2022-12-07T14:09:54;6.20;78.60
13707;DHT22;6925;47.816;13.072;2022-12-07T14:12:24;6.20;79.00
13707;DHT22;6925;47.816;13.072;2022-12-07T14:14:52;6.30;79.30
13707;DHT22;6925;47.816;13.072;2022-12-07T14:17:23;6.30;79.60
13707;DHT22;6925;47.816;13.072;2022-12-07T14:19:53;6.40;79.60
13707;DHT22;6925;47.816;13.072;2022-12-07T14:22:30;6.40;78.90
13707;DHT22;6925;47.816;13.072;2022-12-07T14:25:15;6.40;79.60
13707;DHT22;6925;47.816;13.072;2022-12-07T14:28:00;6.40;78.60
13707;DHT22;6925;47.816;13.072;2022-12-07T14:30:34;6.30;77.90
13707;DHT22;6925;47.816;13.072;2022-12-07T14:33:03;6.30;78.20
13707;DHT22;6925;47.816;13.072;2022-12-07T14:35:36;6.20;78.50
13707;DHT22;6925;47.816;13.072;2022-12-07T14:38:07;6.20;78.50
13707;DHT22;6925;47.816;13.072;2022-12-07T14:40:34;6.20;78.60
13707;DHT22;6925;47.816;13.072;2022-12-07T14:43:05;6.30;78.90
13707;DHT22;6925;47.816;13.072;2022-12-07T14:45:36;6.30;79.20
13707;DHT22;6925;47.816;13.072;2022-12-07T14:48:06;6.30;79.30
13707;DHT22;6925;47.816;13.072;2022-12-07T14:50:37;6.30;79.70
13707;DHT22;6925;47.816;13.072;2022-12-07T14:53:10;6.30;79.60
13707;DHT22;6925;47.816;13.072;2022-12-07T14:55:38;6.30;79.50
13707;DHT22;6925;47.816;13.072;2022-12-07T14:58:12;6.30;79.40
13707;DHT22;6925;47.816;13.072;2022-12-07T15:00:41;6.30;79.10
13707;DHT22;6925;47.816;13.072;2022-12-07T15:03:08;6.30;78.80
13707;DHT22;6925;47.816;13.072;2022-12-07T15:05:38;6.30;78.20
13707;DHT22;6925;47.816;13.072;2022-12-07T15:08:06;6.30;77.60
13707;DHT22;6925;47.816;13.072;2022-12-07T15:10:34;6.30;77.30
13707;DHT22;6925;47.816;13.072;2022-12-07T15:13:04;6.20;77.00
13707;DHT22;6925;47.816;13.072;2022-12-07T15:15:47;6.20;77.40
13707;DHT22;6925;47.816;13.072;2022-12-07T15:18:15;6.20;77.40
13707;DHT22;6925;47.816;13.072;2022-12-07T15:20:43;6.20;76.40
13707;DHT22;6925;47.816;13.072;2022-12-07T15:23:10;6.20;76.50
13707;DHT22;6925;47.816;13.072;2022-12-07T15:25:40;6.10;76.50
13707;DHT22;6925;47.816;13.072;2022-12-07T15:28:08;6.10;76.30
13707;DHT22;6925;47.816;13.072;2022-12-07T15:30:37;6.10;76.50
13707;DHT22;6925;47.816;13.072;2022-12-07T15:33:06;6.10;76.50
13707;DHT22;6925;47.816;13.072;2022-12-07T15:35:34;6.10;76.00
13707;DHT22;6925;47.816;13.072;2022-12-07T15:38:05;6.00;75.80
13707;DHT22;6925;47.816;13.072;2022-12-07T15:40:32;6.00;75.90
13707;DHT22;6925;47.816;13.072;2022-12-07T15:43:02;6.00;76.00
13707;DHT22;6925;47.816;13.072;2022-12-07T15:45:30;6.00;76.20
13707;DHT22;6925;47.816;13.072;2022-12-07T15:47:56;6.00;76.60
13707;DHT22;6925;47.816;13.072;2022-12-07T15:50:25;6.00;76.00
13707;DHT22;6925;47.816;13.072;2022-12-07T15:52:52;6.00;75.40
13707;DHT22;6925;47.816;13.072;2022-12-07T15:55:20;6.00;75.80
13707;DHT22;6925;47.816;13.072;2022-12-07T15:57:47;6.00;76.00
13707;DHT22;6925;47.816;13.072;2022-12-07T16:00:15;5.90;75.90
13707;DHT22;6925;47.816;13.072;2022-12-07T16:02:43;5.90;76.30
13707;DHT22;6925;47.816;13.072;2022-12-07T16:08:34;5.90;77.10
13707;DHT22;6925;47.816;13.072;2022-12-07T16:11:05;5.90;76.60
13707;DHT22;6925;47.816;13.072;2022-12-07T16:13:33;5.90;76.10
13707;DHT22;6925;47.816;13.072;2022-12-07T16:19:22;5.80;76.70
13707;DHT22;6925;47.816;13.072;2022-12-07T16:21:49;5.80;76.80
13707;DHT22;6925;47.816;13.072;2022-12-07T16:24:19;5.80;77.00
13707;DHT22;6925;47.816;13.072;2022-12-07T16:26:46;5.80;77.00
13707;DHT22;6925;47.816;13.072;2022-12-07T16:29:14;5.80;76.90
13707;DHT22;6925;47.816;13.072;2022-12-07T16:31:41;5.80;77.30